TimeEDT,TemperatureF,Dew PointF,Humidity,Sea Level PressureIn,VisibilityMPH,Wind Direction,Wind SpeedMPH,Gust SpeedMPH,PrecipitationIn,Events,Conditions,WindDirDegrees,DateUTC
12:53 AM,71.1,68.0,90,30.07,10.0,Calm,Calm,-,N/A,,Clear,0,2013-05-19 04:53:00
1:53 AM,69.1,66.9,93,30.06,8.0,Calm,Calm,-,N/A,,Clear,0,2013-05-19 05:53:00
2:53 AM,69.1,66.9,93,30.05,9.0,Calm,Calm,-,N/A,,Clear,0,2013-05-19 06:53:00
3:53 AM,69.1,66.9,93,30.04,8.0,Calm,Calm,-,N/A,,Clear,0,2013-05-19 07:53:00
4:53 AM,66.9,66.0,97,30.04,5.0,Calm,Calm,-,N/A,,Clear,0,2013-05-19 08:53:00
5:53 AM,66.9,66.0,97,30.05,7.0,NNE,3.5,-,N/A,,Clear,30,2013-05-19 09:53:00
6:29 AM,64.4,64.4,100,30.06,1.2,Calm,Calm,-,N/A,,Clear,0,2013-05-19 10:29:00
6:36 AM,64.4,62.6,94,30.06,0.8,Calm,Calm,-,N/A,,Mist,0,2013-05-19 10:36:00
6:49 AM,64.4,64.4,100,30.06,0.2,Calm,Calm,-,N/A,Fog,Fog,0,2013-05-19 10:49:00
6:53 AM,64.9,64.0,97,30.06,0.2,Calm,Calm,-,N/A,Fog,Fog,0,2013-05-19 10:53:00
7:28 AM,68.0,66.2,94,30.09,1.2,Calm,Calm,-,N/A,,Scattered Clouds,0,2013-05-19 11:28:00
7:31 AM,68.0,66.2,94,30.09,3.0,Calm,Calm,-,N/A,,Scattered Clouds,0,2013-05-19 11:31:00
8:19 AM,71.6,69.8,94,30.10,10.0,ESE,5.8,-,N/A,,Mostly Cloudy,120,2013-05-19 12:19:00
8:53 AM,75.0,70.0,84,30.10,10.0,Calm,Calm,-,N/A,,Mostly Cloudy,0,2013-05-19 12:53:00
9:11 AM,77.0,69.8,78,30.11,10.0,Calm,Calm,-,N/A,,Scattered Clouds,0,2013-05-19 13:11:00
9:36 AM,77.0,71.6,83,30.12,10.0,Variable,3.5,-,N/A,,Mostly Cloudy,0,2013-05-19 13:36:00
9:53 AM,79.0,71.1,77,30.11,10.0,WNW,5.8,-,N/A,,Mostly Cloudy,300,2013-05-19 13:53:00
10:10 AM,80.6,71.6,74,30.11,10.0,West,5.8,-,N/A,,Scattered Clouds,270,2013-05-19 14:10:00
10:53 AM,82.0,68.0,62,30.11,10.0,SW,4.6,-,N/A,,Clear,220,2013-05-19 14:53:00
11:53 AM,87.1,69.1,55,30.09,10.0,West,6.9,-,N/A,,Clear,280,2013-05-19 15:53:00
12:53 PM,87.1,66.9,51,30.08,10.0,WSW,8.1,-,N/A,,Partly Cloudy,250,2013-05-19 16:53:00
1:53 PM,88.0,62.1,42,30.06,10.0,Variable,4.6,18.4,N/A,,Clear,0,2013-05-19 17:53:00
4:53 PM,86.0,57.0,37,30.01,10.0,West,13.8,-,N/A,,Clear,270,2013-05-19 20:53:00
5:53 PM,87.1,55.9,35,30.02,10.0,WNW,9.2,-,N/A,,Clear,290,2013-05-19 21:53:00
6:53 PM,82.9,55.9,39,30.03,10.0,WNW,11.5,-,N/A,,Clear,290,2013-05-19 22:53:00
7:53 PM,80.1,61.0,52,30.04,10.0,WNW,4.6,-,N/A,,Clear,290,2013-05-19 23:53:00
8:53 PM,77.0,62.1,60,30.05,10.0,Calm,Calm,-,N/A,,Clear,0,2013-05-20 00:53:00
9:53 PM,73.0,62.1,68,30.08,10.0,Calm,Calm,-,N/A,,Clear,0,2013-05-20 01:53:00
10:53 PM,73.0,64.0,73,30.10,10.0,ENE,5.8,-,N/A,,Clear,60,2013-05-20 02:53:00